sensor_id;sensor_type;location;lat;lon;timestamp;P1;durP1;ratioP1;P2;durP2;ratioP2
74967;SDS011;63523;51.880;12.630;2023-11-19T00:00:21;7.32;;;2.67;;
74967;SDS011;63523;51.880;12.630;2023-11-19T00:02:46;7.57;;;2.90;;
74967;SDS011;63523;51.880;12.630;2023-11-19T00:05:12;7.23;;;2.93;;
74967;SDS011;63523;51.880;12.630;2023-11-19T00:07:38;7.43;;;3.10;;
74967;SDS011;63523;51.880;12.630;2023-11-19T00:10:11;7.78;;;3.00;;
74967;SDS011;63523;51.880;12.630;2023-11-19T00:12:38;6.43;;;2.58;;
74967;SDS011;63523;51.880;12.630;2023-11-19T00:15:09;8.32;;;3.30;;
74967;SDS011;63523;51.880;12.630;2023-11-19T00:17:37;7.13;;;2.75;;
74967;SDS011;63523;51.880;12.630;2023-11-19T00:20:18;7.10;;;2.70;;
74967;SDS011;63523;51.880;12.630;2023-11-19T00:22:48;7.20;;;2.95;;
74967;SDS011;63523;51.880;12.630;2023-11-19T00:25:19;7.93;;;2.83;;
74967;SDS011;63523;51.880;12.630;2023-11-19T00:27:45;7.05;;;2.35;;
74967;SDS011;63523;51.880;12.630;2023-11-19T00:30:10;7.00;;;2.57;;
74967;SDS011;63523;51.880;12.630;2023-11-19T00:32:38;9.33;;;2.80;;
74967;SDS011;63523;51.880;12.630;2023-11-19T00:35:07;6.70;;;2.60;;
74967;SDS011;63523;51.880;12.630;2023-11-19T00:37:33;8.18;;;2.50;;
74967;SDS011;63523;51.880;12.630;2023-11-19T00:39:59;6.60;;;2.60;;
74967;SDS011;63523;51.880;12.630;2023-11-19T00:42:24;7.13;;;2.50;;
74967;SDS011;63523;51.880;12.630;2023-11-19T00:44:50;7.25;;;2.65;;
74967;SDS011;63523;51.880;12.630;2023-11-19T00:47:15;7.20;;;2.50;;
74967;SDS011;63523;51.880;12.630;2023-11-19T00:49:41;7.70;;;2.30;;
74967;SDS011;63523;51.880;12.630;2023-11-19T00:52:07;7.10;;;2.80;;
74967;SDS011;63523;51.880;12.630;2023-11-19T00:54:33;6.23;;;2.40;;
74967;SDS011;63523;51.880;12.630;2023-11-19T00:56:58;8.65;;;2.35;;
74967;SDS011;63523;51.880;12.630;2023-11-19T00:59:23;6.53;;;2.37;;
74967;SDS011;63523;51.880;12.630;2023-11-19T01:01:49;6.63;;;2.40;;
74967;SDS011;63523;51.880;12.630;2023-11-19T01:04:16;6.47;;;2.30;;
74967;SDS011;63523;51.880;12.630;2023-11-19T01:06:41;6.83;;;2.50;;
74967;SDS011;63523;51.880;12.630;2023-11-19T01:09:07;6.22;;;2.08;;
74967;SDS011;63523;51.880;12.630;2023-11-19T01:11:33;7.63;;;2.50;;
74967;SDS011;63523;51.880;12.630;2023-11-19T01:13:59;6.45;;;2.38;;
74967;SDS011;63523;51.880;12.630;2023-11-19T01:16:25;5.73;;;1.87;;
74967;SDS011;63523;51.880;12.630;2023-11-19T01:18:51;6.82;;;2.38;;
74967;SDS011;63523;51.880;12.630;2023-11-19T01:21:16;6.40;;;2.33;;
74967;SDS011;63523;51.880;12.630;2023-11-19T01:23:41;6.20;;;2.13;;
74967;SDS011;63523;51.880;12.630;2023-11-19T01:26:08;6.38;;;2.00;;
74967;SDS011;63523;51.880;12.630;2023-11-19T01:28:35;5.97;;;2.10;;
74967;SDS011;63523;51.880;12.630;2023-11-19T01:31:04;5.67;;;2.20;;
74967;SDS011;63523;51.880;12.630;2023-11-19T01:33:29;5.78;;;2.20;;
74967;SDS011;63523;51.880;12.630;2023-11-19T01:35:55;5.23;;;2.10;;
74967;SDS011;63523;51.880;12.630;2023-11-19T01:38:23;5.65;;;1.73;;
74967;SDS011;63523;51.880;12.630;2023-11-19T01:40:49;6.40;;;2.00;;
74967;SDS011;63523;51.880;12.630;2023-11-19T01:43:30;5.45;;;1.92;;
74967;SDS011;63523;51.880;12.630;2023-11-19T01:45:59;5.87;;;1.70;;
74967;SDS011;63523;51.880;12.630;2023-11-19T01:48:34;5.28;;;1.70;;
74967;SDS011;63523;51.880;12.630;2023-11-19T01:51:01;5.78;;;2.15;;
74967;SDS011;63523;51.880;12.630;2023-11-19T01:53:28;6.47;;;1.88;;
74967;SDS011;63523;51.880;12.630;2023-11-19T01:55:56;6.32;;;1.58;;
74967;SDS011;63523;51.880;12.630;2023-11-19T01:58:23;5.13;;;1.50;;
74967;SDS011;63523;51.880;12.630;2023-11-19T02:00:49;4.05;;;1.20;;
74967;SDS011;63523;51.880;12.630;2023-11-19T02:03:14;4.70;;;1.40;;
74967;SDS011;63523;51.880;12.630;2023-11-19T02:05:41;3.83;;;1.10;;
74967;SDS011;63523;51.880;12.630;2023-11-19T02:08:06;4.85;;;1.30;;
74967;SDS011;63523;51.880;12.630;2023-11-19T02:10:32;3.77;;;1.00;;
74967;SDS011;63523;51.880;12.630;2023-11-19T02:12:58;5.25;;;1.58;;
74967;SDS011;63523;51.880;12.630;2023-11-19T02:15:24;4.93;;;1.20;;
74967;SDS011;63523;51.880;12.630;2023-11-19T02:17:50;4.78;;;1.10;;
74967;SDS011;63523;51.880;12.630;2023-11-19T02:20:16;5.20;;;1.13;;
74967;SDS011;63523;51.880;12.630;2023-11-19T02:23:12;4.40;;;1.15;;
74967;SDS011;63523;51.880;12.630;2023-11-19T02:28:26;4.45;;;1.40;;
74967;SDS011;63523;51.880;12.630;2023-11-19T02:30:52;4.80;;;1.50;;
74967;SDS011;63523;51.880;12.630;2023-11-19T02:33:18;4.50;;;1.30;;
74967;SDS011;63523;51.880;12.630;2023-11-19T02:35:43;4.75;;;1.38;;
74967;SDS011;63523;51.880;12.630;2023-11-19T02:38:09;4.27;;;1.27;;
74967;SDS011;63523;51.880;12.630;2023-11-19T02:40:34;4.33;;;1.20;;
74967;SDS011;63523;51.880;12.630;2023-11-19T02:42:59;4.23;;;1.23;;
74967;SDS011;63523;51.880;12.630;2023-11-19T02:45:25;6.30;;;1.40;;
74967;SDS011;63523;51.880;12.630;2023-11-19T02:47:51;4.63;;;1.40;;
74967;SDS011;63523;51.880;12.630;2023-11-19T02:50:17;4.70;;;1.33;;
74967;SDS011;63523;51.880;12.630;2023-11-19T02:52:50;4.68;;;1.70;;
74967;SDS011;63523;51.880;12.630;2023-11-19T02:55:17;5.40;;;1.35;;
74967;SDS011;63523;51.880;12.630;2023-11-19T02:57:43;4.63;;;1.20;;
74967;SDS011;63523;51.880;12.630;2023-11-19T03:00:12;4.20;;;1.10;;
74967;SDS011;63523;51.880;12.630;2023-11-19T03:02:42;4.25;;;1.27;;
74967;SDS011;63523;51.880;12.630;2023-11-19T03:05:11;6.13;;;1.33;;
74967;SDS011;63523;51.880;12.630;2023-11-19T03:07:39;4.53;;;1.23;;
74967;SDS011;63523;51.880;12.630;2023-11-19T03:10:05;4.80;;;1.13;;
74967;SDS011;63523;51.880;12.630;2023-11-19T03:12:31;4.00;;;0.90;;
74967;SDS011;63523;51.880;12.630;2023-11-19T03:14:56;5.10;;;1.40;;
74967;SDS011;63523;51.880;12.630;2023-11-19T03:17:22;4.60;;;1.03;;
74967;SDS011;63523;51.880;12.630;2023-11-19T03:19:49;4.22;;;1.08;;
74967;SDS011;63523;51.880;12.630;2023-11-19T03:22:14;3.60;;;1.07;;
74967;SDS011;63523;51.880;12.630;2023-11-19T03:24:40;4.20;;;1.03;;
74967;SDS011;63523;51.880;12.630;2023-11-19T03:27:05;3.37;;;0.83;;
74967;SDS011;63523;51.880;12.630;2023-11-19T03:29:30;3.40;;;0.75;;
74967;SDS011;63523;51.880;12.630;2023-11-19T03:31:55;4.23;;;1.00;;
74967;SDS011;63523;51.880;12.630;2023-11-19T03:34:21;3.30;;;0.70;;
74967;SDS011;63523;51.880;12.630;2023-11-19T03:36:46;4.13;;;1.00;;
74967;SDS011;63523;51.880;12.630;2023-11-19T03:39:12;3.60;;;0.90;;
74967;SDS011;63523;51.880;12.630;2023-11-19T03:41:37;3.38;;;0.60;;
74967;SDS011;63523;51.880;12.630;2023-11-19T03:44:02;3.70;;;0.80;;
74967;SDS011;63523;51.880;12.630;2023-11-19T03:46:28;3.60;;;0.70;;
74967;SDS011;63523;51.880;12.630;2023-11-19T03:48:54;3.20;;;0.70;;
74967;SDS011;63523;51.880;12.630;2023-11-19T03:51:20;3.80;;;0.90;;
74967;SDS011;63523;51.880;12.630;2023-11-19T03:53:45;3.50;;;0.60;;
74967;SDS011;63523;51.880;12.630;2023-11-19T03:56:11;3.40;;;0.50;;
74967;SDS011;63523;51.880;12.630;2023-11-19T03:58:37;3.65;;;0.80;;
74967;SDS011;63523;51.880;12.630;2023-11-19T04:01:03;4.38;;;0.60;;
74967;SDS011;63523;51.880;12.630;2023-11-19T04:03:29;2.77;;;0.40;;
74967;SDS011;63523;51.880;12.630;2023-11-19T04:05:54;3.10;;;0.60;;
74967;SDS011;63523;51.880;12.630;2023-11-19T04:08:19;3.00;;;0.40;;
74967;SDS011;63523;51.880;12.630;2023-11-19T04:10:45;2.80;;;0.50;;
74967;SDS011;63523;51.880;12.630;2023-11-19T04:13:10;2.47;;;0.33;;
74967;SDS011;63523;51.880;12.630;2023-11-19T04:15:35;2.23;;;0.40;;
74967;SDS011;63523;51.880;12.630;2023-11-19T04:18:01;2.67;;;0.30;;
74967;SDS011;63523;51.880;12.630;2023-11-19T04:20:26;4.20;;;0.50;;
74967;SDS011;63523;51.880;12.630;2023-11-19T04:22:51;2.90;;;0.47;;
74967;SDS011;63523;51.880;12.630;2023-11-19T04:25:18;3.15;;;0.50;;
74967;SDS011;63523;51.880;12.630;2023-11-19T04:27:44;3.63;;;0.30;;
74967;SDS011;63523;51.880;12.630;2023-11-19T04:30:10;3.73;;;0.37;;
74967;SDS011;63523;51.880;12.630;2023-11-19T04:32:36;2.42;;;0.20;;
74967;SDS011;63523;51.880;12.630;2023-11-19T04:35:01;3.07;;;0.40;;
74967;SDS011;63523;51.880;12.630;2023-11-19T04:37:27;2.60;;;0.30;;
74967;SDS011;63523;51.880;12.630;2023-11-19T04:39:52;2.03;;;0.20;;
74967;SDS011;63523;51.880;12.630;2023-11-19T04:42:17;2.30;;;0.37;;
74967;SDS011;63523;51.880;12.630;2023-11-19T04:44:43;2.93;;;0.30;;
74967;SDS011;63523;51.880;12.630;2023-11-19T04:47:08;3.10;;;0.20;;
74967;SDS011;63523;51.880;12.630;2023-11-19T04:49:39;2.42;;;0.30;;
74967;SDS011;63523;51.880;12.630;2023-11-19T04:52:05;2.63;;;0.20;;
74967;SDS011;63523;51.880;12.630;2023-11-19T04:54:30;2.57;;;0.30;;
74967;SDS011;63523;51.880;12.630;2023-11-19T04:56:56;2.10;;;0.20;;
74967;SDS011;63523;51.880;12.630;2023-11-19T04:59:21;2.60;;;0.30;;
74967;SDS011;63523;51.880;12.630;2023-11-19T05:01:47;2.03;;;0.20;;
74967;SDS011;63523;51.880;12.630;2023-11-19T05:04:13;2.30;;;0.20;;
74967;SDS011;63523;51.880;12.630;2023-11-19T05:06:38;3.17;;;0.40;;
74967;SDS011;63523;51.880;12.630;2023-11-19T05:09:03;2.20;;;0.30;;
74967;SDS011;63523;51.880;12.630;2023-11-19T05:11:37;2.05;;;0.20;;
74967;SDS011;63523;51.880;12.630;2023-11-19T05:14:03;2.85;;;0.40;;
74967;SDS011;63523;51.880;12.630;2023-11-19T05:16:29;2.07;;;0.40;;
74967;SDS011;63523;51.880;12.630;2023-11-19T05:18:54;1.58;;;0.13;;
74967;SDS011;63523;51.880;12.630;2023-11-19T05:21:20;2.27;;;0.30;;
74967;SDS011;63523;51.880;12.630;2023-11-19T05:23:45;2.03;;;0.30;;
74967;SDS011;63523;51.880;12.630;2023-11-19T05:26:21;3.13;;;0.50;;
74967;SDS011;63523;51.880;12.630;2023-11-19T05:28:48;3.88;;;0.43;;
74967;SDS011;63523;51.880;12.630;2023-11-19T05:31:14;2.33;;;0.40;;
74967;SDS011;63523;51.880;12.630;2023-11-19T05:33:40;2.58;;;0.38;;
74967;SDS011;63523;51.880;12.630;2023-11-19T05:36:06;2.33;;;0.33;;
74967;SDS011;63523;51.880;12.630;2023-11-19T05:38:33;2.70;;;0.43;;
74967;SDS011;63523;51.880;12.630;2023-11-19T05:40:59;2.67;;;0.50;;
74967;SDS011;63523;51.880;12.630;2023-11-19T05:43:24;2.53;;;0.40;;
74967;SDS011;63523;51.880;12.630;2023-11-19T05:45:49;3.23;;;0.40;;
74967;SDS011;63523;51.880;12.630;2023-11-19T05:48:14;4.37;;;0.40;;
74967;SDS011;63523;51.880;12.630;2023-11-19T05:50:40;2.17;;;0.30;;
74967;SDS011;63523;51.880;12.630;2023-11-19T05:53:05;2.42;;;0.30;;
74967;SDS011;63523;51.880;12.630;2023-11-19T05:55:34;1.73;;;0.20;;
74967;SDS011;63523;51.880;12.630;2023-11-19T05:58:01;3.38;;;0.20;;
74967;SDS011;63523;51.880;12.630;2023-11-19T06:00:26;2.10;;;0.20;;
74967;SDS011;63523;51.880;12.630;2023-11-19T06:02:52;2.00;;;0.20;;
74967;SDS011;63523;51.880;12.630;2023-11-19T06:05:17;1.73;;;0.20;;
74967;SDS011;63523;51.880;12.630;2023-11-19T06:07:43;1.50;;;0.10;;
74967;SDS011;63523;51.880;12.630;2023-11-19T06:10:08;1.90;;;0.20;;
74967;SDS011;63523;51.880;12.630;2023-11-19T06:12:35;2.30;;;0.20;;
74967;SDS011;63523;51.880;12.630;2023-11-19T06:15:03;2.03;;;0.25;;
74967;SDS011;63523;51.880;12.630;2023-11-19T06:17:30;2.93;;;0.30;;
74967;SDS011;63523;51.880;12.630;2023-11-19T06:19:55;2.35;;;0.20;;
74967;SDS011;63523;51.880;12.630;2023-11-19T06:22:20;1.83;;;0.20;;
74967;SDS011;63523;51.880;12.630;2023-11-19T06:24:46;3.50;;;0.30;;
74967;SDS011;63523;51.880;12.630;2023-11-19T06:27:11;2.73;;;0.20;;
74967;SDS011;63523;51.880;12.630;2023-11-19T06:29:36;5.37;;;0.40;;
74967;SDS011;63523;51.880;12.630;2023-11-19T06:32:02;4.47;;;0.87;;
74967;SDS011;63523;51.880;12.630;2023-11-19T06:34:27;3.25;;;0.40;;
74967;SDS011;63523;51.880;12.630;2023-11-19T06:36:53;4.70;;;0.30;;
74967;SDS011;63523;51.880;12.630;2023-11-19T06:39:18;1.77;;;0.10;;
74967;SDS011;63523;51.880;12.630;2023-11-19T06:41:45;2.10;;;0.10;;
74967;SDS011;63523;51.880;12.630;2023-11-19T06:44:11;1.98;;;0.10;;
74967;SDS011;63523;51.880;12.630;2023-11-19T06:46:37;2.87;;;0.20;;
74967;SDS011;63523;51.880;12.630;2023-11-19T06:49:02;1.60;;;0.20;;
74967;SDS011;63523;51.880;12.630;2023-11-19T06:51:27;2.30;;;0.20;;
74967;SDS011;63523;51.880;12.630;2023-11-19T06:53:54;2.05;;;0.20;;
74967;SDS011;63523;51.880;12.630;2023-11-19T06:56:21;2.05;;;0.30;;
74967;SDS011;63523;51.880;12.630;2023-11-19T06:58:47;2.83;;;0.20;;
74967;SDS011;63523;51.880;12.630;2023-11-19T07:01:13;2.33;;;0.20;;
74967;SDS011;63523;51.880;12.630;2023-11-19T07:03:40;1.90;;;0.20;;
74967;SDS011;63523;51.880;12.630;2023-11-19T07:06:05;2.27;;;0.20;;
74967;SDS011;63523;51.880;12.630;2023-11-19T07:08:30;1.92;;;0.20;;
74967;SDS011;63523;51.880;12.630;2023-11-19T07:10:56;2.60;;;0.30;;
74967;SDS011;63523;51.880;12.630;2023-11-19T07:13:21;1.80;;;0.20;;
74967;SDS011;63523;51.880;12.630;2023-11-19T07:15:46;1.77;;;0.20;;
74967;SDS011;63523;51.880;12.630;2023-11-19T07:18:12;1.60;;;0.10;;
74967;SDS011;63523;51.880;12.630;2023-11-19T07:20:37;3.17;;;0.20;;
74967;SDS011;63523;51.880;12.630;2023-11-19T07:23:03;1.80;;;0.20;;
74967;SDS011;63523;51.880;12.630;2023-11-19T07:25:29;1.60;;;0.20;;
74967;SDS011;63523;51.880;12.630;2023-11-19T07:27:54;1.60;;;0.10;;
74967;SDS011;63523;51.880;12.630;2023-11-19T07:30:19;2.57;;;0.20;;
74967;SDS011;63523;51.880;12.630;2023-11-19T07:32:45;1.03;;;0.10;;
74967;SDS011;63523;51.880;12.630;2023-11-19T07:35:10;2.43;;;0.10;;
74967;SDS011;63523;51.880;12.630;2023-11-19T07:37:36;1.20;;;0.10;;
74967;SDS011;63523;51.880;12.630;2023-11-19T07:45:52;1.73;;;0.20;;
74967;SDS011;63523;51.880;12.630;2023-11-19T07:48:17;4.97;;;0.30;;
74967;SDS011;63523;51.880;12.630;2023-11-19T07:50:48;2.50;;;0.17;;
74967;SDS011;63523;51.880;12.630;2023-11-19T07:53:15;1.10;;;0.10;;
74967;SDS011;63523;51.880;12.630;2023-11-19T07:55:41;2.38;;;0.20;;
74967;SDS011;63523;51.880;12.630;2023-11-19T07:58:06;1.83;;;0.10;;
74967;SDS011;63523;51.880;12.630;2023-11-19T08:00:31;1.67;;;0.20;;
74967;SDS011;63523;51.880;12.630;2023-11-19T08:02:57;1.70;;;0.10;;
74967;SDS011;63523;51.880;12.630;2023-11-19T08:05:22;1.60;;;0.20;;
74967;SDS011;63523;51.880;12.630;2023-11-19T08:07:49;2.30;;;0.30;;
74967;SDS011;63523;51.880;12.630;2023-11-19T08:10:15;2.27;;;0.40;;
74967;SDS011;63523;51.880;12.630;2023-11-19T08:12:40;2.97;;;0.30;;
74967;SDS011;63523;51.880;12.630;2023-11-19T08:15:06;2.67;;;0.30;;
74967;SDS011;63523;51.880;12.630;2023-11-19T08:17:32;2.70;;;0.40;;
74967;SDS011;63523;51.880;12.630;2023-11-19T08:19:57;3.13;;;0.30;;
74967;SDS011;63523;51.880;12.630;2023-11-19T08:22:25;2.67;;;0.67;;
74967;SDS011;63523;51.880;12.630;2023-11-19T08:24:50;4.03;;;0.70;;
74967;SDS011;63523;51.880;12.630;2023-11-19T08:27:15;2.20;;;0.23;;
74967;SDS011;63523;51.880;12.630;2023-11-19T08:29:40;2.70;;;0.27;;
74967;SDS011;63523;51.880;12.630;2023-11-19T08:32:06;4.20;;;0.30;;
74967;SDS011;63523;51.880;12.630;2023-11-19T08:34:32;2.87;;;0.20;;
74967;SDS011;63523;51.880;12.630;2023-11-19T08:36:57;2.17;;;0.20;;
74967;SDS011;63523;51.880;12.630;2023-11-19T08:39:22;3.00;;;0.20;;
74967;SDS011;63523;51.880;12.630;2023-11-19T08:41:48;2.43;;;0.10;;
74967;SDS011;63523;51.880;12.630;2023-11-19T08:44:13;2.80;;;0.20;;
74967;SDS011;63523;51.880;12.630;2023-11-19T08:46:39;3.03;;;0.57;;
74967;SDS011;63523;51.880;12.630;2023-11-19T08:49:10;2.13;;;0.20;;
74967;SDS011;63523;51.880;12.630;2023-11-19T08:51:36;2.17;;;0.20;;
74967;SDS011;63523;51.880;12.630;2023-11-19T08:54:01;1.57;;;0.10;;
74967;SDS011;63523;51.880;12.630;2023-11-19T08:56:26;1.87;;;0.20;;
74967;SDS011;63523;51.880;12.630;2023-11-19T08:58:56;2.60;;;0.20;;
74967;SDS011;63523;51.880;12.630;2023-11-19T09:01:22;2.00;;;0.20;;
74967;SDS011;63523;51.880;12.630;2023-11-19T09:03:47;1.83;;;0.20;;
74967;SDS011;63523;51.880;12.630;2023-11-19T09:06:12;1.90;;;0.17;;
74967;SDS011;63523;51.880;12.630;2023-11-19T09:08:38;1.80;;;0.20;;
74967;SDS011;63523;51.880;12.630;2023-11-19T09:11:06;2.20;;;0.33;;
74967;SDS011;63523;51.880;12.630;2023-11-19T09:13:32;2.47;;;0.30;;
74967;SDS011;63523;51.880;12.630;2023-11-19T09:15:57;2.50;;;0.30;;
74967;SDS011;63523;51.880;12.630;2023-11-19T09:18:28;2.03;;;0.20;;
74967;SDS011;63523;51.880;12.630;2023-11-19T09:20:53;3.23;;;0.30;;
74967;SDS011;63523;51.880;12.630;2023-11-19T09:23:19;4.05;;;0.40;;
74967;SDS011;63523;51.880;12.630;2023-11-19T09:25:44;3.27;;;0.43;;
74967;SDS011;63523;51.880;12.630;2023-11-19T09:28:10;2.03;;;0.20;;
74967;SDS011;63523;51.880;12.630;2023-11-19T09:30:35;3.87;;;0.50;;
74967;SDS011;63523;51.880;12.630;2023-11-19T09:33:01;4.07;;;0.60;;
74967;SDS011;63523;51.880;12.630;2023-11-19T09:35:26;2.45;;;0.30;;
74967;SDS011;63523;51.880;12.630;2023-11-19T09:37:51;3.50;;;0.37;;
74967;SDS011;63523;51.880;12.630;2023-11-19T09:40:17;4.80;;;0.80;;
74967;SDS011;63523;51.880;12.630;2023-11-19T09:42:44;4.22;;;0.50;;
74967;SDS011;63523;51.880;12.630;2023-11-19T09:45:14;5.57;;;0.30;;
74967;SDS011;63523;51.880;12.630;2023-11-19T09:47:44;3.07;;;0.30;;
74967;SDS011;63523;51.880;12.630;2023-11-19T09:50:13;2.53;;;0.22;;
74967;SDS011;63523;51.880;12.630;2023-11-19T09:52:41;3.78;;;0.35;;
74967;SDS011;63523;51.880;12.630;2023-11-19T09:55:07;4.20;;;0.50;;
74967;SDS011;63523;51.880;12.630;2023-11-19T09:57:33;2.70;;;0.40;;
74967;SDS011;63523;51.880;12.630;2023-11-19T10:00:02;3.70;;;0.50;;
74967;SDS011;63523;51.880;12.630;2023-11-19T10:02:30;2.35;;;0.22;;
74967;SDS011;63523;51.880;12.630;2023-11-19T10:04:58;3.92;;;0.20;;
74967;SDS011;63523;51.880;12.630;2023-11-19T10:07:24;2.60;;;0.40;;
74967;SDS011;63523;51.880;12.630;2023-11-19T10:09:50;3.60;;;0.20;;
74967;SDS011;63523;51.880;12.630;2023-11-19T10:12:15;2.20;;;0.30;;
74967;SDS011;63523;51.880;12.630;2023-11-19T10:14:41;2.65;;;0.30;;
74967;SDS011;63523;51.880;12.630;2023-11-19T10:17:08;3.08;;;0.32;;
74967;SDS011;63523;51.880;12.630;2023-11-19T10:19:34;3.07;;;0.20;;
74967;SDS011;63523;51.880;12.630;2023-11-19T10:22:06;6.32;;;0.40;;
74967;SDS011;63523;51.880;12.630;2023-11-19T10:24:32;6.50;;;0.60;;
74967;SDS011;63523;51.880;12.630;2023-11-19T10:27:01;3.90;;;0.40;;
74967;SDS011;63523;51.880;12.630;2023-11-19T10:29:29;6.15;;;0.75;;
74967;SDS011;63523;51.880;12.630;2023-11-19T10:31:57;5.43;;;0.63;;
74967;SDS011;63523;51.880;12.630;2023-11-19T10:34:24;4.03;;;0.60;;
74967;SDS011;63523;51.880;12.630;2023-11-19T10:36:51;4.93;;;0.82;;
74967;SDS011;63523;51.880;12.630;2023-11-19T10:39:16;3.57;;;0.40;;
74967;SDS011;63523;51.880;12.630;2023-11-19T10:41:43;5.53;;;0.80;;
74967;SDS011;63523;51.880;12.630;2023-11-19T10:44:08;3.77;;;0.50;;
74967;SDS011;63523;51.880;12.630;2023-11-19T10:46:37;4.18;;;0.50;;
74967;SDS011;63523;51.880;12.630;2023-11-19T10:49:09;4.38;;;0.40;;
74967;SDS011;63523;51.880;12.630;2023-11-19T10:51:35;3.70;;;0.50;;
74967;SDS011;63523;51.880;12.630;2023-11-19T10:54:05;11.70;;;0.98;;
74967;SDS011;63523;51.880;12.630;2023-11-19T10:56:34;5.93;;;0.57;;
74967;SDS011;63523;51.880;12.630;2023-11-19T10:58:59;3.90;;;0.37;;
74967;SDS011;63523;51.880;12.630;2023-11-19T11:01:32;5.88;;;0.70;;
74967;SDS011;63523;51.880;12.630;2023-11-19T11:04:03;6.70;;;0.65;;
74967;SDS011;63523;51.880;12.630;2023-11-19T11:06:31;5.78;;;0.50;;
74967;SDS011;63523;51.880;12.630;2023-11-19T11:08:59;5.22;;;0.75;;
74967;SDS011;63523;51.880;12.630;2023-11-19T11:11:25;4.20;;;1.00;;
74967;SDS011;63523;51.880;12.630;2023-11-19T11:13:51;5.93;;;0.50;;
74967;SDS011;63523;51.880;12.630;2023-11-19T11:16:19;7.85;;;0.50;;
74967;SDS011;63523;51.880;12.630;2023-11-19T11:18:47;6.75;;;0.50;;
74967;SDS011;63523;51.880;12.630;2023-11-19T11:21:17;5.43;;;0.50;;
74967;SDS011;63523;51.880;12.630;2023-11-19T11:32:04;5.28;;;0.57;;
74967;SDS011;63523;51.880;12.630;2023-11-19T11:34:53;6.63;;;1.02;;
74967;SDS011;63523;51.880;12.630;2023-11-19T11:37:50;4.20;;;0.40;;
74967;SDS011;63523;51.880;12.630;2023-11-19T11:40:25;6.47;;;0.80;;
74967;SDS011;63523;51.880;12.630;2023-11-19T11:42:51;6.72;;;0.68;;
74967;SDS011;63523;51.880;12.630;2023-11-19T11:45:18;5.37;;;0.60;;
74967;SDS011;63523;51.880;12.630;2023-11-19T11:50:19;5.78;;;0.88;;
74967;SDS011;63523;51.880;12.630;2023-11-19T11:57:59;7.63;;;0.90;;
74967;SDS011;63523;51.880;12.630;2023-11-19T12:03:22;4.97;;;0.75;;
74967;SDS011;63523;51.880;12.630;2023-11-19T12:05:48;7.73;;;1.10;;
74967;SDS011;63523;51.880;12.630;2023-11-19T12:08:14;5.03;;;1.13;;
74967;SDS011;63523;51.880;12.630;2023-11-19T12:13:15;7.00;;;0.90;;
74967;SDS011;63523;51.880;12.630;2023-11-19T12:18:27;6.82;;;0.75;;
74967;SDS011;63523;51.880;12.630;2023-11-19T12:20:53;6.75;;;0.82;;
74967;SDS011;63523;51.880;12.630;2023-11-19T12:23:19;7.35;;;1.20;;
74967;SDS011;63523;51.880;12.630;2023-11-19T12:25:45;8.60;;;0.87;;
74967;SDS011;63523;51.880;12.630;2023-11-19T12:28:16;5.67;;;0.80;;
74967;SDS011;63523;51.880;12.630;2023-11-19T12:30:42;8.70;;;0.93;;
74967;SDS011;63523;51.880;12.630;2023-11-19T12:33:09;8.52;;;1.15;;
74967;SDS011;63523;51.880;12.630;2023-11-19T12:35:41;10.35;;;0.93;;
74967;SDS011;63523;51.880;12.630;2023-11-19T12:38:22;4.60;;;0.50;;
74967;SDS011;63523;51.880;12.630;2023-11-19T12:41:07;4.60;;;0.70;;
74967;SDS011;63523;51.880;12.630;2023-11-19T12:43:36;4.53;;;0.60;;
74967;SDS011;63523;51.880;12.630;2023-11-19T12:46:03;5.55;;;0.70;;
74967;SDS011;63523;51.880;12.630;2023-11-19T12:48:29;4.72;;;0.73;;
74967;SDS011;63523;51.880;12.630;2023-11-19T12:50:55;3.80;;;0.63;;
74967;SDS011;63523;51.880;12.630;2023-11-19T12:53:22;6.72;;;0.77;;
74967;SDS011;63523;51.880;12.630;2023-11-19T12:55:49;3.40;;;0.50;;
74967;SDS011;63523;51.880;12.630;2023-11-19T12:58:27;3.95;;;0.60;;
74967;SDS011;63523;51.880;12.630;2023-11-19T13:01:01;4.18;;;0.70;;
74967;SDS011;63523;51.880;12.630;2023-11-19T13:03:35;8.95;;;1.27;;
74967;SDS011;63523;51.880;12.630;2023-11-19T13:06:04;9.93;;;1.50;;
74967;SDS011;63523;51.880;12.630;2023-11-19T13:08:43;7.00;;;1.10;;
74967;SDS011;63523;51.880;12.630;2023-11-19T13:11:11;13.93;;;2.08;;
74967;SDS011;63523;51.880;12.630;2023-11-19T13:13:54;10.70;;;1.70;;
74967;SDS011;63523;51.880;12.630;2023-11-19T13:16:19;7.90;;;1.30;;
74967;SDS011;63523;51.880;12.630;2023-11-19T13:18:44;9.13;;;1.03;;
74967;SDS011;63523;51.880;12.630;2023-11-19T13:21:10;10.90;;;2.40;;
74967;SDS011;63523;51.880;12.630;2023-11-19T13:23:35;18.87;;;4.30;;
74967;SDS011;63523;51.880;12.630;2023-11-19T13:26:01;20.53;;;4.53;;
74967;SDS011;63523;51.880;12.630;2023-11-19T13:28:26;20.05;;;4.00;;
74967;SDS011;63523;51.880;12.630;2023-11-19T13:30:52;25.50;;;5.93;;
74967;SDS011;63523;51.880;12.630;2023-11-19T13:33:18;29.27;;;6.80;;
74967;SDS011;63523;51.880;12.630;2023-11-19T13:35:43;26.70;;;6.20;;
74967;SDS011;63523;51.880;12.630;2023-11-19T13:38:09;31.83;;;6.73;;
74967;SDS011;63523;51.880;12.630;2023-11-19T13:40:34;19.80;;;4.70;;
74967;SDS011;63523;51.880;12.630;2023-11-19T13:43:00;9.63;;;1.73;;
74967;SDS011;63523;51.880;12.630;2023-11-19T13:45:25;11.37;;;2.00;;
74967;SDS011;63523;51.880;12.630;2023-11-19T13:47:50;9.47;;;2.63;;
74967;SDS011;63523;51.880;12.630;2023-11-19T13:50:16;15.77;;;3.57;;
74967;SDS011;63523;51.880;12.630;2023-11-19T13:52:45;23.17;;;4.30;;
74967;SDS011;63523;51.880;12.630;2023-11-19T13:55:12;20.30;;;3.78;;
74967;SDS011;63523;51.880;12.630;2023-11-19T13:57:38;22.05;;;5.15;;
74967;SDS011;63523;51.880;12.630;2023-11-19T14:00:05;24.83;;;6.70;;
74967;SDS011;63523;51.880;12.630;2023-11-19T14:02:37;34.90;;;6.57;;
74967;SDS011;63523;51.880;12.630;2023-11-19T14:05:06;18.38;;;3.90;;
74967;SDS011;63523;51.880;12.630;2023-11-19T14:07:32;14.52;;;2.53;;
74967;SDS011;63523;51.880;12.630;2023-11-19T14:09:57;9.60;;;2.20;;
74967;SDS011;63523;51.880;12.630;2023-11-19T14:12:23;10.90;;;2.35;;
74967;SDS011;63523;51.880;12.630;2023-11-19T14:14:48;12.00;;;1.90;;
74967;SDS011;63523;51.880;12.630;2023-11-19T14:17:14;9.50;;;1.87;;
74967;SDS011;63523;51.880;12.630;2023-11-19T14:19:40;8.32;;;1.52;;
74967;SDS011;63523;51.880;12.630;2023-11-19T14:22:07;7.07;;;1.20;;
74967;SDS011;63523;51.880;12.630;2023-11-19T14:24:33;7.63;;;1.50;;
74967;SDS011;63523;51.880;12.630;2023-11-19T14:26:59;10.13;;;1.58;;
74967;SDS011;63523;51.880;12.630;2023-11-19T14:29:24;8.17;;;1.70;;
74967;SDS011;63523;51.880;12.630;2023-11-19T14:31:51;6.68;;;1.42;;
74967;SDS011;63523;51.880;12.630;2023-11-19T14:34:17;10.95;;;1.70;;
74967;SDS011;63523;51.880;12.630;2023-11-19T14:36:44;9.95;;;2.05;;
74967;SDS011;63523;51.880;12.630;2023-11-19T14:39:09;17.33;;;2.30;;
74967;SDS011;63523;51.880;12.630;2023-11-19T14:41:35;13.77;;;2.40;;
74967;SDS011;63523;51.880;12.630;2023-11-19T14:44:00;7.73;;;1.30;;
74967;SDS011;63523;51.880;12.630;2023-11-19T14:46:26;11.27;;;2.00;;
74967;SDS011;63523;51.880;12.630;2023-11-19T14:48:52;5.93;;;1.15;;
74967;SDS011;63523;51.880;12.630;2023-11-19T14:51:17;7.17;;;1.17;;
74967;SDS011;63523;51.880;12.630;2023-11-19T14:53:43;19.03;;;7.20;;
74967;SDS011;63523;51.880;12.630;2023-11-19T14:56:11;12.77;;;3.10;;
74967;SDS011;63523;51.880;12.630;2023-11-19T14:58:37;6.40;;;1.45;;
74967;SDS011;63523;51.880;12.630;2023-11-19T15:01:03;8.10;;;1.60;;
74967;SDS011;63523;51.880;12.630;2023-11-19T15:03:29;5.43;;;1.15;;